createdAt,value
2024-02-22T05:00:34.356Z,0.00
2024-02-22T05:01:35.446Z,0.00
2024-02-22T05:02:35.354Z,0.00
2024-02-22T05:03:35.290Z,0.00
2024-02-22T05:04:35.292Z,0.00
2024-02-22T05:05:35.408Z,0.00
2024-02-22T05:06:35.289Z,0.00
2024-02-22T05:07:35.273Z,0.00
2024-02-22T05:08:37.482Z,0.00
2024-02-22T05:09:35.218Z,0.00
2024-02-22T05:10:35.329Z,0.00
2024-02-22T05:11:35.407Z,0.00
2024-02-22T05:12:35.184Z,0.00
2024-02-22T05:13:35.226Z,0.00
2024-02-22T05:14:35.158Z,0.00
2024-02-22T05:15:35.142Z,0.00
2024-02-22T05:16:35.178Z,0.00
2024-02-22T05:17:35.161Z,0.00
2024-02-22T05:18:35.235Z,0.00
2024-02-22T05:19:35.246Z,0.00
2024-02-22T05:20:35.086Z,0.00
2024-02-22T05:21:35.195Z,0.00
2024-02-22T05:22:35.114Z,0.00
2024-02-22T05:23:35.092Z,0.00
2024-02-22T05:24:35.073Z,0.00
2024-02-22T05:25:35.198Z,0.00
2024-02-22T05:26:35.077Z,0.00
2024-02-22T05:27:37.445Z,0.00
2024-02-22T05:28:35.095Z,0.00
2024-02-22T05:29:34.991Z,0.00
2024-02-22T05:30:34.983Z,0.00
2024-02-22T05:31:35.083Z,0.00
2024-02-22T05:32:34.993Z,0.00
2024-02-22T05:33:35.039Z,0.00
2024-02-22T05:34:35.113Z,0.00
2024-02-22T05:35:34.920Z,0.00
2024-02-22T05:36:34.992Z,0.00
2024-02-22T05:37:35.908Z,0.00
2024-02-22T05:38:34.912Z,0.00
2024-02-22T05:39:34.998Z,0.00
2024-02-22T05:40:35.024Z,0.00
2024-02-22T05:41:35.152Z,0.00
2024-02-22T05:42:34.798Z,1.00
2024-02-22T05:43:35.003Z,0.00
2024-02-22T05:44:34.878Z,0.00
2024-02-22T05:45:34.983Z,0.00
2024-02-22T05:46:34.833Z,1.00
2024-02-22T05:47:34.825Z,1.00
2024-02-22T05:48:34.823Z,1.00
2024-02-22T05:49:34.789Z,1.00
2024-02-22T05:50:34.710Z,2.00
2024-02-22T05:51:34.759Z,2.00
2024-02-22T05:52:34.712Z,2.00
2024-02-22T05:53:34.696Z,3.00
2024-02-22T05:54:34.665Z,1.00
2024-02-22T05:55:34.735Z,3.00
2024-02-22T05:56:34.660Z,4.00
2024-02-22T05:57:34.661Z,4.00
2024-02-22T05:58:34.647Z,5.00
2024-02-22T05:59:34.611Z,8.00
2024-02-22T06:00:34.619Z,9.00
2024-02-22T06:01:34.806Z,9.00
2024-02-22T06:02:34.655Z,9.00
2024-02-22T06:03:34.578Z,11.00
2024-02-22T06:04:34.737Z,11.00
2024-02-22T06:05:34.578Z,14.00
2024-02-22T06:06:34.540Z,14.00
2024-02-22T06:07:34.563Z,17.00
2024-02-22T06:08:34.522Z,17.00
2024-02-22T06:09:34.500Z,18.00
2024-02-22T06:10:34.536Z,20.00
2024-02-22T06:11:34.667Z,20.00
2024-02-22T06:12:34.476Z,21.00
2024-02-22T06:13:34.499Z,24.00
2024-02-22T06:14:34.457Z,24.00
2024-02-22T06:15:34.468Z,24.00
2024-02-22T06:16:34.521Z,27.00
2024-02-22T06:17:34.436Z,27.00
2024-02-22T06:18:35.766Z,28.00
2024-02-22T06:19:34.449Z,32.00
2024-02-22T06:20:34.384Z,30.00
2024-02-22T06:21:34.378Z,32.00
2024-02-22T06:22:34.464Z,38.00
2024-02-22T06:23:34.376Z,39.00
2024-02-22T06:24:34.348Z,39.00
2024-02-22T06:25:34.354Z,53.00
2024-02-22T06:26:34.331Z,46.00
2024-02-22T06:27:34.311Z,50.00
2024-02-22T06:28:34.359Z,55.00
2024-02-22T06:29:34.313Z,46.00
2024-02-22T06:30:34.279Z,49.00
2024-02-22T06:31:34.345Z,52.00
2024-02-22T06:32:34.274Z,56.00
2024-02-22T06:33:34.747Z,63.00
2024-02-22T06:34:34.298Z,62.00
2024-02-22T06:35:34.245Z,57.00
2024-02-22T06:36:34.239Z,65.00
2024-02-22T06:37:34.273Z,63.00
2024-02-22T06:38:34.184Z,88.00
2024-02-22T06:39:34.193Z,73.00
2024-02-22T06:40:34.216Z,84.00
2024-02-22T06:41:34.995Z,90.00
2024-02-22T06:42:34.145Z,91.00
2024-02-22T06:43:34.206Z,90.00
2024-02-22T06:44:34.127Z,114.00
2024-02-22T06:45:34.118Z,104.00
2024-02-22T06:46:34.142Z,110.00
2024-02-22T06:47:34.140Z,127.00
2024-02-22T06:48:34.249Z,127.00
2024-02-22T06:49:34.621Z,112.00
2024-02-22T06:50:34.086Z,133.00
2024-02-22T06:51:34.100Z,142.00
2024-02-22T06:52:34.126Z,127.00
2024-02-22T06:53:34.030Z,125.00
2024-02-22T06:54:34.022Z,129.00
2024-02-22T06:55:34.060Z,136.00
2024-02-22T06:56:33.981Z,154.00
2024-02-22T06:57:33.981Z,145.00
2024-02-22T06:58:33.990Z,170.00
2024-02-22T06:59:34.397Z,165.00
2024-02-22T07:00:34.519Z,159.00
2024-02-22T07:01:33.992Z,177.00
2024-02-22T07:02:33.937Z,186.00
2024-02-22T07:03:33.994Z,170.00
2024-02-22T07:04:34.306Z,213.00
2024-02-22T07:05:34.091Z,200.00
2024-02-22T07:06:33.982Z,216.00
2024-02-22T07:07:33.964Z,204.00
2024-02-22T07:08:33.870Z,247.00
2024-02-22T07:09:33.857Z,192.00
2024-02-22T07:10:33.971Z,225.00
2024-02-22T07:11:34.049Z,233.00
2024-02-22T07:12:33.821Z,247.00
2024-02-22T07:13:33.863Z,237.00
2024-02-22T07:14:33.955Z,251.00
2024-02-22T07:15:33.833Z,263.00
2024-02-22T07:16:33.808Z,275.00
2024-02-22T07:17:33.956Z,257.00
2024-02-22T07:18:34.507Z,294.00
2024-02-22T07:19:33.808Z,228.00
2024-02-22T07:20:33.792Z,254.00
2024-02-22T07:21:33.851Z,228.00
2024-02-22T07:22:33.758Z,217.00
2024-02-22T07:23:33.762Z,273.00
2024-02-22T07:24:33.693Z,245.00
2024-02-22T07:25:33.743Z,282.00
2024-02-22T07:26:33.695Z,262.00
2024-02-22T07:27:33.692Z,244.00
2024-02-22T07:28:33.701Z,279.00
2024-02-22T07:29:33.674Z,316.00
2024-02-22T07:30:33.638Z,326.00
2024-02-22T07:31:33.654Z,316.00
2024-02-22T07:32:33.666Z,275.00
2024-02-22T07:33:33.736Z,262.00
2024-02-22T07:34:33.744Z,304.00
2024-02-22T07:35:33.709Z,320.00
2024-02-22T07:36:33.561Z,307.00
2024-02-22T07:37:33.588Z,293.00
2024-02-22T07:38:33.575Z,288.00
2024-02-22T07:39:33.541Z,281.00
2024-02-22T07:40:33.683Z,316.00
2024-02-22T07:41:33.639Z,316.00
2024-02-22T07:42:33.634Z,368.00
2024-02-22T07:43:33.547Z,386.00
2024-02-22T07:44:33.557Z,351.00
2024-02-22T07:45:33.513Z,407.00
2024-02-22T07:46:33.527Z,396.00
2024-02-22T07:47:33.546Z,382.00
2024-02-22T07:48:33.622Z,380.00
2024-02-22T07:49:33.551Z,364.00
2024-02-22T07:50:33.540Z,324.00
2024-02-22T07:51:35.887Z,332.00
2024-02-22T07:52:33.418Z,351.00
2024-02-22T07:53:33.379Z,386.00
2024-02-22T07:54:33.502Z,407.00
2024-02-22T07:55:33.398Z,366.00
2024-02-22T07:56:34.184Z,354.00
2024-02-22T07:57:33.331Z,313.00
2024-02-22T07:58:33.391Z,333.00
2024-02-22T07:59:33.347Z,446.00
2024-02-22T08:00:33.319Z,473.00
2024-02-22T08:01:33.339Z,476.00
2024-02-22T08:02:33.336Z,425.00
2024-02-22T08:03:33.272Z,376.00
2024-02-22T08:04:33.439Z,405.00
2024-02-22T08:05:33.283Z,402.00
2024-02-22T08:06:33.272Z,363.00
2024-02-22T08:07:33.272Z,354.00
2024-02-22T08:08:33.254Z,300.00
2024-02-22T08:09:33.813Z,421.00
2024-02-22T08:10:33.256Z,335.00
2024-02-22T08:11:33.363Z,392.00
2024-02-22T08:12:33.197Z,340.00
2024-02-22T08:13:33.186Z,465.00
2024-02-22T08:14:33.374Z,491.00
2024-02-22T08:15:33.137Z,380.00
2024-02-22T08:16:33.135Z,343.00
2024-02-22T08:17:33.355Z,370.00
2024-02-22T08:18:33.125Z,461.00
2024-02-22T08:19:33.187Z,450.00
2024-02-22T08:20:33.226Z,416.00
2024-02-22T08:21:33.069Z,421.00
2024-02-22T08:22:33.134Z,496.00
2024-02-22T08:23:33.051Z,489.00
2024-02-22T08:24:33.045Z,447.00
2024-02-22T08:25:33.069Z,595.00
2024-02-22T08:26:33.045Z,606.00
2024-02-22T08:27:33.734Z,580.00
2024-02-22T08:28:33.029Z,522.00
2024-02-22T08:29:33.000Z,594.00
2024-02-22T08:30:32.981Z,532.00
2024-02-22T08:31:33.087Z,585.00
2024-02-22T08:32:33.055Z,623.00
2024-02-22T08:33:33.089Z,642.00
2024-02-22T08:34:33.097Z,595.00
2024-02-22T08:35:32.989Z,636.00
2024-02-22T08:36:32.920Z,591.00
2024-02-22T08:37:32.971Z,546.00
2024-02-22T08:38:32.893Z,627.00
2024-02-22T08:39:32.882Z,732.00
2024-02-22T08:40:39.221Z,462.00
2024-02-22T08:41:32.904Z,541.00
2024-02-22T08:42:32.870Z,593.00
2024-02-22T08:43:32.879Z,701.00
2024-02-22T08:44:32.853Z,718.00
2024-02-22T08:45:32.862Z,613.00
2024-02-22T08:46:34.936Z,570.00
2024-02-22T08:47:32.898Z,546.00
2024-02-22T08:48:32.884Z,611.00
2024-02-22T08:49:32.839Z,471.00
2024-02-22T08:50:32.845Z,511.00
2024-02-22T08:51:32.815Z,434.00
2024-02-22T08:52:32.857Z,521.00
2024-02-22T08:53:32.896Z,512.00
2024-02-22T08:54:32.761Z,463.00
2024-02-22T08:55:32.869Z,541.00
2024-02-22T08:56:32.795Z,446.00
2024-02-22T08:57:39.427Z,418.00
2024-02-22T08:58:32.741Z,564.00
2024-02-22T08:59:32.691Z,516.00
2024-02-22T09:00:32.794Z,581.00
2024-02-22T09:01:32.699Z,578.00
2024-02-22T09:02:32.667Z,519.00
2024-02-22T09:03:32.659Z,628.00
2024-02-22T09:04:32.670Z,700.00
2024-02-22T09:05:32.751Z,664.00
2024-02-22T09:06:32.657Z,561.00
2024-02-22T09:07:32.793Z,591.00
2024-02-22T09:08:32.884Z,766.00
2024-02-22T09:09:32.576Z,622.00
2024-02-22T09:10:32.801Z,617.00
2024-02-22T09:11:32.591Z,568.00
2024-02-22T09:12:32.533Z,701.00
2024-02-22T09:13:32.636Z,671.00
2024-02-22T09:14:32.504Z,660.00
2024-02-22T09:15:32.488Z,622.00
2024-02-22T09:16:33.463Z,687.00
2024-02-22T09:17:32.492Z,692.00
2024-02-22T09:18:32.609Z,679.00
2024-02-22T09:19:32.528Z,611.00
2024-02-22T09:20:32.482Z,664.00
2024-02-22T09:21:32.531Z,750.00
2024-02-22T09:22:32.425Z,788.00
2024-02-22T09:23:32.416Z,659.00
2024-02-22T09:24:32.389Z,764.00
2024-02-22T09:25:32.533Z,888.00
2024-02-22T09:26:32.404Z,772.00
2024-02-22T09:27:32.504Z,814.00
2024-02-22T09:28:32.368Z,795.00
2024-02-22T09:29:32.368Z,754.00
2024-02-22T09:30:32.327Z,790.00
2024-02-22T09:31:32.344Z,949.00
2024-02-22T09:32:33.521Z,925.00
2024-02-22T09:33:32.396Z,754.00
2024-02-22T09:34:32.324Z,894.00
2024-02-22T09:35:32.352Z,1059.00
2024-02-22T09:36:32.266Z,980.00
2024-02-22T09:37:32.346Z,834.00
2024-02-22T09:38:32.253Z,758.00
2024-02-22T09:39:32.240Z,982.00
2024-02-22T09:40:32.235Z,933.00
2024-02-22T09:41:32.254Z,985.00
2024-02-22T09:42:32.202Z,970.00
2024-02-22T09:43:32.209Z,1067.00
2024-02-22T09:44:32.191Z,959.00
2024-02-22T09:45:32.168Z,953.00
2024-02-22T09:46:32.149Z,1005.00
2024-02-22T09:47:32.167Z,1013.00
2024-02-22T09:48:32.152Z,892.00
2024-02-22T09:49:32.140Z,906.00
2024-02-22T09:50:32.127Z,798.00
2024-02-22T09:51:32.718Z,810.00
2024-02-22T09:52:32.058Z,924.00
2024-02-22T09:53:32.122Z,906.00
2024-02-22T09:54:32.057Z,784.00
2024-02-22T09:55:32.029Z,710.00
2024-02-22T09:56:32.076Z,837.00
2024-02-22T09:57:32.007Z,720.00
2024-02-22T09:58:32.002Z,845.00
2024-02-22T09:59:31.999Z,905.00
2024-02-22T10:00:31.993Z,1016.00
2024-02-22T10:01:31.961Z,1292.00
2024-02-22T10:02:31.957Z,1139.00
2024-02-22T10:03:32.003Z,1079.00
2024-02-22T10:04:31.936Z,980.00
2024-02-22T10:05:32.003Z,1117.00
2024-02-22T10:06:31.953Z,879.00
2024-02-22T10:07:31.933Z,824.00
2024-02-22T10:08:31.947Z,788.00
2024-02-22T10:09:31.880Z,760.00
2024-02-22T10:10:31.864Z,688.00
2024-02-22T10:11:31.910Z,885.00
2024-02-22T10:12:32.748Z,940.00
2024-02-22T10:13:31.959Z,934.00
2024-02-22T10:14:31.950Z,983.00
2024-02-22T10:15:31.839Z,1162.00
2024-02-22T10:16:31.791Z,1087.00
2024-02-22T10:17:32.001Z,973.00
2024-02-22T10:18:31.880Z,876.00
2024-02-22T10:19:31.798Z,1059.00
2024-02-22T10:20:31.986Z,858.00
2024-02-22T10:21:31.796Z,988.00
2024-02-22T10:22:31.734Z,1061.00
2024-02-22T10:23:31.753Z,1102.00
2024-02-22T10:24:31.731Z,972.00
2024-02-22T10:25:31.710Z,1347.00
2024-02-22T10:26:31.754Z,1321.00
2024-02-22T10:27:31.683Z,1643.00
2024-02-22T10:28:31.682Z,1365.00
2024-02-22T10:29:31.688Z,1351.00
2024-02-22T10:30:31.653Z,1445.00
2024-02-22T10:31:31.722Z,1158.00
2024-02-22T10:32:32.509Z,1368.00
2024-02-22T10:33:31.866Z,1249.00
2024-02-22T10:34:31.952Z,1396.00
2024-02-22T10:35:31.713Z,1299.00
2024-02-22T10:36:31.601Z,1221.00
2024-02-22T10:37:31.689Z,1080.00
2024-02-22T10:38:31.604Z,1433.00
2024-02-22T10:39:31.581Z,1234.00
2024-02-22T10:40:31.531Z,1762.00
2024-02-22T10:41:31.620Z,1496.00
2024-02-22T10:42:31.543Z,1384.00
2024-02-22T10:43:31.533Z,1453.00
2024-02-22T10:44:31.513Z,1393.00
2024-02-22T10:45:31.500Z,1616.00
2024-02-22T10:46:31.484Z,1259.00
2024-02-22T10:47:31.541Z,1631.00
2024-02-22T10:48:31.547Z,1629.00
2024-02-22T10:49:31.483Z,1904.00
2024-02-22T10:50:31.463Z,2363.00
2024-02-22T10:51:31.417Z,3389.00
2024-02-22T10:52:31.401Z,3939.00
2024-02-22T10:53:31.398Z,3793.00
2024-02-22T10:54:31.381Z,3173.00
2024-02-22T10:55:31.392Z,3472.00
2024-02-22T10:56:31.372Z,3864.00
2024-02-22T10:57:31.361Z,3681.00
2024-02-22T10:58:31.337Z,4293.00
2024-02-22T10:59:31.333Z,3558.00
2024-02-22T11:00:31.362Z,2341.00
2024-02-22T11:01:31.325Z,3761.00
2024-02-22T11:02:31.303Z,2192.00
2024-02-22T11:03:31.313Z,1647.00
2024-02-22T11:04:31.364Z,2793.00
2024-02-22T11:05:31.303Z,3524.00
2024-02-22T11:06:31.281Z,3201.00
2024-02-22T11:07:31.270Z,2327.00
2024-02-22T11:08:31.236Z,2110.00
2024-02-22T11:09:31.222Z,2184.00
2024-02-22T11:10:31.369Z,2016.00
2024-02-22T11:11:31.247Z,2390.00
2024-02-22T11:12:31.187Z,1809.00
2024-02-22T11:13:31.184Z,1885.00
2024-02-22T11:14:33.631Z,1832.00
2024-02-22T11:15:31.164Z,2035.00
2024-02-22T11:16:31.146Z,1887.00
2024-02-22T11:17:31.219Z,1779.00
2024-02-22T11:18:31.164Z,1281.00
2024-02-22T11:19:31.121Z,1341.00
2024-02-22T11:20:31.118Z,1138.00
2024-02-22T11:21:31.091Z,1018.00
2024-02-22T11:22:31.088Z,743.00
2024-02-22T11:23:31.162Z,798.00
2024-02-22T11:24:31.099Z,1290.00
2024-02-22T11:25:31.054Z,1057.00
2024-02-22T11:26:31.137Z,1293.00
2024-02-22T11:27:31.047Z,1487.00
2024-02-22T11:28:31.015Z,2444.00
2024-02-22T11:29:31.036Z,4168.00
2024-02-22T11:30:31.060Z,4771.00
2024-02-22T11:31:30.985Z,4487.00
2024-02-22T11:32:31.077Z,4349.00
2024-02-22T11:33:31.015Z,3286.00
2024-02-22T11:34:30.962Z,2620.00
2024-02-22T11:35:31.069Z,2505.00
2024-02-22T11:36:30.934Z,2475.00
2024-02-22T11:37:30.942Z,2484.00
2024-02-22T11:38:30.954Z,2351.00
2024-02-22T11:39:30.895Z,2473.00
2024-02-22T11:40:30.913Z,2159.00
2024-02-22T11:41:30.913Z,1902.00
2024-02-22T11:42:30.862Z,1667.00
2024-02-22T11:43:30.875Z,1650.00
2024-02-22T11:44:30.905Z,1601.00
2024-02-22T11:45:30.894Z,1912.00
2024-02-22T11:46:30.840Z,1810.00
2024-02-22T11:47:30.954Z,1764.00
2024-02-22T11:48:30.913Z,2143.00
2024-02-22T11:49:30.805Z,2941.00
2024-02-22T11:50:30.866Z,2738.00
2024-02-22T11:51:30.779Z,1813.00
2024-02-22T11:52:30.768Z,1709.00
2024-02-22T11:53:30.763Z,1624.00
2024-02-22T11:54:30.752Z,1634.00
2024-02-22T11:55:30.744Z,2020.00
2024-02-22T11:56:30.711Z,1648.00
2024-02-22T11:57:30.705Z,1486.00
2024-02-22T11:58:30.696Z,1495.00
2024-02-22T11:59:30.700Z,1387.00
2024-02-22T12:00:30.947Z,1168.00
2024-02-22T12:01:30.655Z,1221.00
2024-02-22T12:02:30.705Z,1173.00
2024-02-22T12:03:30.651Z,887.00
2024-02-22T12:04:30.641Z,1065.00
2024-02-22T12:05:30.710Z,1090.00
2024-02-22T12:06:30.728Z,893.00
2024-02-22T12:07:30.663Z,944.00
2024-02-22T12:08:30.673Z,748.00
2024-02-22T12:09:30.567Z,913.00
2024-02-22T12:10:30.613Z,927.00
2024-02-22T12:11:30.649Z,905.00
2024-02-22T12:12:30.548Z,1078.00
2024-02-22T12:13:30.522Z,1082.00
2024-02-22T12:14:30.555Z,1043.00
2024-02-22T12:15:30.618Z,1212.00
2024-02-22T12:16:30.511Z,1107.00
2024-02-22T12:17:30.578Z,1356.00
2024-02-22T12:18:30.575Z,1437.00
2024-02-22T12:19:30.509Z,1257.00
2024-02-22T12:20:30.562Z,1451.00
2024-02-22T12:21:30.468Z,1265.00
2024-02-22T12:22:30.447Z,964.00
2024-02-22T12:23:30.423Z,1335.00
2024-02-22T12:24:30.411Z,895.00
2024-02-22T12:25:30.410Z,1429.00
2024-02-22T12:26:30.550Z,1043.00
2024-02-22T12:27:30.458Z,1377.00
2024-02-22T12:28:30.369Z,1520.00
2024-02-22T12:29:30.367Z,1534.00
2024-02-22T12:30:30.358Z,1503.00
2024-02-22T12:31:30.346Z,1587.00
2024-02-22T12:32:30.478Z,1561.00
2024-02-22T12:33:30.410Z,1357.00
2024-02-22T12:34:30.314Z,1378.00
2024-02-22T12:35:30.393Z,1494.00
2024-02-22T12:36:30.291Z,1479.00
2024-02-22T12:37:30.338Z,1403.00
2024-02-22T12:38:30.287Z,1430.00
2024-02-22T12:39:30.261Z,1631.00
2024-02-22T12:40:30.237Z,1614.00
2024-02-22T12:41:30.263Z,1499.00
2024-02-22T12:42:30.212Z,1473.00
2024-02-22T12:43:30.219Z,1301.00
2024-02-22T12:44:30.283Z,1416.00
2024-02-22T12:45:30.181Z,1373.00
2024-02-22T12:46:30.186Z,1327.00
2024-02-22T12:47:30.270Z,1158.00
2024-02-22T12:48:30.268Z,1206.00
2024-02-22T12:49:30.282Z,996.00
2024-02-22T12:50:30.164Z,1219.00
2024-02-22T12:51:30.141Z,1167.00
2024-02-22T12:52:30.106Z,1155.00
2024-02-22T12:53:30.091Z,1145.00
2024-02-22T12:54:30.084Z,1259.00
2024-02-22T12:55:30.066Z,1304.00
2024-02-22T12:56:30.548Z,1282.00
2024-02-22T12:57:30.068Z,1345.00
2024-02-22T12:58:30.044Z,1382.00
2024-02-22T12:59:30.128Z,1389.00
2024-02-22T13:00:30.049Z,1446.00
2024-02-22T13:01:30.022Z,1947.00
2024-02-22T13:02:30.066Z,3118.00
2024-02-22T13:03:30.009Z,4066.00
2024-02-22T13:04:30.316Z,4118.00
2024-02-22T13:05:30.109Z,3353.00
2024-02-22T13:06:29.984Z,3267.00
2024-02-22T13:07:30.017Z,3504.00
2024-02-22T13:08:31.411Z,4362.00
2024-02-22T13:09:29.980Z,5017.00
2024-02-22T13:10:29.932Z,4256.00
2024-02-22T13:11:30.088Z,7814.00
2024-02-22T13:12:29.951Z,6096.00
2024-02-22T13:13:29.994Z,6429.00
2024-02-22T13:14:29.944Z,5922.00
2024-02-22T13:15:29.877Z,6428.00
2024-02-22T13:16:29.919Z,6425.00
2024-02-22T13:17:29.956Z,3469.00
2024-02-22T13:18:29.932Z,3678.00
2024-02-22T13:19:29.834Z,6751.00
2024-02-22T13:20:29.852Z,4047.00
2024-02-22T13:21:29.957Z,4397.00
2024-02-22T13:22:29.803Z,4639.00
2024-02-22T13:23:29.875Z,3374.00
2024-02-22T13:24:29.791Z,2477.00
2024-02-22T13:25:29.783Z,1817.00
2024-02-22T13:26:29.835Z,1724.00
2024-02-22T13:27:29.764Z,1718.00
2024-02-22T13:28:29.796Z,1713.00
2024-02-22T13:29:29.863Z,2321.00
2024-02-22T13:30:29.732Z,2511.00
2024-02-22T13:31:29.759Z,2772.00
2024-02-22T13:32:29.807Z,2971.00
2024-02-22T13:33:29.806Z,1932.00
2024-02-22T13:34:29.817Z,1860.00
2024-02-22T13:35:29.743Z,1747.00
2024-02-22T13:36:29.850Z,1268.00
2024-02-22T13:37:29.689Z,1214.00
2024-02-22T13:38:29.673Z,1356.00
2024-02-22T13:39:29.677Z,1314.00
2024-02-22T13:40:29.615Z,1505.00
2024-02-22T13:41:29.712Z,1029.00
2024-02-22T13:42:29.593Z,1099.00
2024-02-22T13:43:29.622Z,960.00
2024-02-22T13:44:31.060Z,885.00
2024-02-22T13:45:29.540Z,1278.00
2024-02-22T13:46:29.582Z,1370.00
2024-02-22T13:47:29.649Z,1529.00
2024-02-22T13:48:29.602Z,1832.00
2024-02-22T13:49:29.563Z,1322.00
2024-02-22T13:50:29.558Z,1470.00
2024-02-22T13:51:36.865Z,1478.00
2024-02-22T13:52:29.505Z,1391.00
2024-02-22T13:53:29.491Z,1377.00
2024-02-22T13:54:29.497Z,1410.00
2024-02-22T13:55:29.447Z,1356.00
2024-02-22T13:56:29.493Z,1340.00
2024-02-22T13:57:29.416Z,1409.00
2024-02-22T13:58:29.430Z,1129.00
2024-02-22T13:59:29.457Z,935.00
2024-02-22T14:00:29.389Z,763.00
2024-02-22T14:01:29.369Z,651.00
2024-02-22T14:02:29.418Z,636.00
2024-02-22T14:03:29.366Z,771.00
2024-02-22T14:04:29.431Z,1000.00
2024-02-22T14:05:29.504Z,957.00
2024-02-22T14:06:29.361Z,906.00
2024-02-22T14:07:29.326Z,823.00
2024-02-22T14:08:29.391Z,639.00
2024-02-22T14:09:29.294Z,600.00
2024-02-22T14:10:29.274Z,640.00
2024-02-22T14:11:29.324Z,645.00
2024-02-22T14:12:29.305Z,651.00
2024-02-22T14:13:29.253Z,728.00
2024-02-22T14:14:29.327Z,909.00
2024-02-22T14:15:29.275Z,1141.00
2024-02-22T14:16:29.217Z,1299.00
2024-02-22T14:17:29.279Z,1180.00
2024-02-22T14:18:29.275Z,1041.00
2024-02-22T14:19:29.230Z,1254.00
2024-02-22T14:20:29.231Z,1756.00
2024-02-22T14:21:29.179Z,1959.00
2024-02-22T14:22:29.160Z,1943.00
2024-02-22T14:23:29.171Z,1575.00
2024-02-22T14:24:29.120Z,1513.00
2024-02-22T14:25:29.109Z,1919.00
2024-02-22T14:26:29.281Z,1013.00
2024-02-22T14:27:29.095Z,4447.00
2024-02-22T14:28:29.085Z,3314.00
2024-02-22T14:29:29.083Z,1494.00
2024-02-22T14:30:29.075Z,6516.00
2024-02-22T14:31:29.064Z,3118.00
2024-02-22T14:32:29.205Z,18478.00
2024-02-22T14:33:29.073Z,11043.00
2024-02-22T14:34:29.088Z,16466.00
2024-02-22T14:35:29.051Z,16484.00
2024-02-22T14:36:29.019Z,4445.00
2024-02-22T14:37:28.985Z,33568.00
2024-02-22T14:38:29.036Z,21179.00
2024-02-22T14:39:28.964Z,14424.00
2024-02-22T14:40:28.960Z,5646.00
2024-02-22T14:41:28.988Z,3804.00
2024-02-22T14:42:28.948Z,7271.00
2024-02-22T14:43:28.916Z,1534.00
2024-02-22T14:44:28.897Z,4099.00
2024-02-22T14:45:28.892Z,2427.00
2024-02-22T14:46:28.877Z,1023.00
2024-02-22T14:47:28.941Z,6305.00
2024-02-22T14:48:28.930Z,1878.00
2024-02-22T14:49:29.189Z,4071.00
2024-02-22T14:50:28.944Z,5864.00
2024-02-22T14:51:28.852Z,2404.00
2024-02-22T14:52:28.827Z,5588.00
2024-02-22T14:53:28.827Z,7520.00
2024-02-22T14:54:28.823Z,6221.00
2024-02-22T14:55:28.777Z,4651.00
2024-02-22T14:56:28.858Z,4633.00
2024-02-22T14:57:28.797Z,4556.00
2024-02-22T14:58:28.746Z,4373.00
2024-02-22T14:59:28.819Z,2626.00
2024-02-22T15:00:28.743Z,2905.00
2024-02-22T15:01:28.711Z,2586.00
2024-02-22T15:02:28.818Z,2328.00
2024-02-22T15:03:28.729Z,1910.00
2024-02-22T15:04:28.726Z,2567.00
2024-02-22T15:05:28.919Z,1677.00
2024-02-22T15:06:28.774Z,2441.00
2024-02-22T15:07:28.683Z,865.00
2024-02-22T15:08:28.696Z,2352.00
2024-02-22T15:09:28.656Z,2871.00
2024-02-22T15:10:28.624Z,3318.00
2024-02-22T15:11:28.710Z,1074.00
2024-02-22T15:12:28.609Z,1738.00
2024-02-22T15:13:28.616Z,7478.00
2024-02-22T15:14:28.634Z,4240.00
2024-02-22T15:15:28.587Z,3388.00
2024-02-22T15:16:28.553Z,2804.00
2024-02-22T15:17:28.646Z,2169.00
2024-02-22T15:18:28.574Z,1807.00
2024-02-22T15:19:28.552Z,1543.00
2024-02-22T15:20:28.633Z,1236.00
2024-02-22T15:21:28.517Z,952.00
2024-02-22T15:22:28.547Z,1009.00
2024-02-22T15:23:28.514Z,1165.00
2024-02-22T15:24:28.483Z,1941.00
2024-02-22T15:25:28.463Z,2084.00
2024-02-22T15:26:28.494Z,1590.00
2024-02-22T15:27:28.459Z,1952.00
2024-02-22T15:28:28.445Z,2104.00
2024-02-22T15:29:28.515Z,2249.00
2024-02-22T15:30:28.401Z,2317.00
2024-02-22T15:31:28.415Z,2087.00
2024-02-22T15:32:28.545Z,1740.00
2024-02-22T15:33:28.783Z,1579.00
2024-02-22T15:34:28.504Z,1572.00
2024-02-22T15:35:28.415Z,1667.00
2024-02-22T15:36:30.791Z,1738.00
2024-02-22T15:37:28.329Z,1357.00
2024-02-22T15:38:28.396Z,906.00
2024-02-22T15:39:28.353Z,610.00
2024-02-22T15:40:28.305Z,467.00
2024-02-22T15:41:28.311Z,362.00
2024-02-22T15:42:28.279Z,275.00
2024-02-22T15:43:28.303Z,235.00
2024-02-22T15:44:28.286Z,203.00
2024-02-22T15:45:28.258Z,194.00
2024-02-22T15:46:28.282Z,197.00
2024-02-22T15:47:28.549Z,208.00
2024-02-22T15:48:28.350Z,231.00
2024-02-22T15:49:28.213Z,231.00
2024-02-22T15:50:28.242Z,238.00
2024-02-22T15:51:28.224Z,250.00
2024-02-22T15:52:28.175Z,244.00
2024-02-22T15:53:28.204Z,204.00
2024-02-22T15:54:28.164Z,171.00
2024-02-22T15:55:28.133Z,170.00
2024-02-22T15:56:28.229Z,175.00
2024-02-22T15:57:28.156Z,171.00
2024-02-22T15:58:28.111Z,158.00
2024-02-22T15:59:28.120Z,142.00
2024-02-22T16:00:28.099Z,130.00
2024-02-22T16:01:30.180Z,117.00
2024-02-22T16:02:28.089Z,109.00
2024-02-22T16:03:28.065Z,104.00
2024-02-22T16:04:28.064Z,96.00
2024-02-22T16:05:28.054Z,87.00
2024-02-22T16:06:28.025Z,81.00
2024-02-22T16:07:28.025Z,75.00
2024-02-22T16:08:28.097Z,64.00
2024-02-22T16:09:27.992Z,62.00
2024-02-22T16:10:27.972Z,59.00
2024-02-22T16:11:28.562Z,49.00
2024-02-22T16:12:27.942Z,43.00
2024-02-22T16:13:27.961Z,39.00
2024-02-22T16:14:27.960Z,39.00
2024-02-22T16:15:27.905Z,34.00
2024-02-22T16:16:27.909Z,35.00
2024-02-22T16:17:28.022Z,31.00
2024-02-22T16:18:28.022Z,31.00
2024-02-22T16:19:27.911Z,30.00
2024-02-22T16:20:27.979Z,28.00
2024-02-22T16:21:27.901Z,28.00
2024-02-22T16:22:27.853Z,26.00
2024-02-22T16:23:29.954Z,26.00
2024-02-22T16:24:27.810Z,26.00
2024-02-22T16:25:27.835Z,26.00
2024-02-22T16:26:27.832Z,28.00
2024-02-22T16:27:27.813Z,29.00
2024-02-22T16:28:27.766Z,30.00
2024-02-22T16:29:27.801Z,29.00
2024-02-22T16:30:27.771Z,32.00
2024-02-22T16:31:27.804Z,31.00
2024-02-22T16:32:27.849Z,29.00
2024-02-22T16:33:27.920Z,26.00
2024-02-22T16:34:27.766Z,27.00
2024-02-22T16:35:27.863Z,27.00
2024-02-22T16:36:27.684Z,26.00
2024-02-22T16:37:27.698Z,25.00
2024-02-22T16:38:27.752Z,20.00
2024-02-22T16:39:31.078Z,20.00
2024-02-22T16:40:27.649Z,18.00
2024-02-22T16:41:27.797Z,17.00
2024-02-22T16:42:27.613Z,17.00
2024-02-22T16:43:27.668Z,10.00
2024-02-22T16:44:27.623Z,11.00
2024-02-22T16:45:27.587Z,12.00
2024-02-22T16:46:27.603Z,11.00
2024-02-22T16:47:27.680Z,7.00
2024-02-22T16:48:27.620Z,8.00
2024-02-22T16:49:27.572Z,4.00
2024-02-22T16:50:27.581Z,3.00
2024-02-22T16:51:27.529Z,3.00
2024-02-22T16:52:27.536Z,2.00
2024-02-22T16:53:27.557Z,2.00
2024-02-22T16:54:27.551Z,0.00
2024-02-22T16:55:27.529Z,1.00
2024-02-22T16:56:27.481Z,1.00
2024-02-22T16:57:27.453Z,1.00
2024-02-22T16:58:27.446Z,1.00
2024-02-22T16:59:27.466Z,1.00
2024-02-22T17:00:27.451Z,1.00
2024-02-22T17:01:27.462Z,1.00
2024-02-22T17:02:27.512Z,0.00
2024-02-22T17:03:27.455Z,0.00
2024-02-22T17:04:27.509Z,0.00
2024-02-22T17:05:27.481Z,1.00
2024-02-22T17:06:29.689Z,0.00
2024-02-22T17:07:27.401Z,0.00
2024-02-22T17:08:27.502Z,0.00
2024-02-22T17:09:27.424Z,0.00
2024-02-22T17:10:27.380Z,0.00
2024-02-22T17:11:27.496Z,0.00
2024-02-22T17:12:27.394Z,0.00
2024-02-22T17:13:27.422Z,0.00
2024-02-22T17:14:27.659Z,0.00
2024-02-22T17:15:27.344Z,0.00
2024-02-22T17:16:27.363Z,0.00
2024-02-22T17:17:27.858Z,0.00
2024-02-22T17:18:27.439Z,0.00
2024-02-22T17:19:27.501Z,0.00
2024-02-22T17:20:27.426Z,0.00
2024-02-22T17:21:27.545Z,0.00
2024-02-22T17:22:27.295Z,0.00
2024-02-22T17:23:27.258Z,0.00
2024-02-22T17:24:27.228Z,0.00
2024-02-22T17:25:27.211Z,0.00
2024-02-22T17:26:27.213Z,0.00
2024-02-22T17:27:27.189Z,0.00
2024-02-22T17:28:27.942Z,0.00